sensor_id;sensor_type;location;lat;lon;timestamp;P1;durP1;ratioP1;P2;durP2;ratioP2
9200;SDS011;4635;48.686;9.008;2022-10-03T00:04:42;11.87;;;8.27;;
9200;SDS011;4635;48.686;9.008;2022-10-03T00:07:37;13.47;;;7.30;;
9200;SDS011;4635;48.686;9.008;2022-10-03T00:10:26;15.33;;;7.73;;
9200;SDS011;4635;48.686;9.008;2022-10-03T00:13:08;15.33;;;7.10;;
9200;SDS011;4635;48.686;9.008;2022-10-03T00:15:51;16.13;;;7.60;;
9200;SDS011;4635;48.686;9.008;2022-10-03T00:18:35;11.00;;;6.57;;
9200;SDS011;4635;48.686;9.008;2022-10-03T00:21:24;8.30;;;5.83;;
9200;SDS011;4635;48.686;9.008;2022-10-03T00:24:09;10.30;;;6.87;;
9200;SDS011;4635;48.686;9.008;2022-10-03T00:26:54;11.40;;;6.90;;
9200;SDS011;4635;48.686;9.008;2022-10-03T00:29:51;10.03;;;6.60;;
9200;SDS011;4635;48.686;9.008;2022-10-03T00:32:51;9.87;;;7.17;;
9200;SDS011;4635;48.686;9.008;2022-10-03T00:35:44;8.83;;;6.80;;
9200;SDS011;4635;48.686;9.008;2022-10-03T00:38:46;7.23;;;5.67;;
9200;SDS011;4635;48.686;9.008;2022-10-03T00:41:41;7.80;;;5.20;;
9200;SDS011;4635;48.686;9.008;2022-10-03T00:47:47;7.10;;;5.33;;
9200;SDS011;4635;48.686;9.008;2022-10-03T00:53:37;7.77;;;5.57;;
9200;SDS011;4635;48.686;9.008;2022-10-03T00:56:31;7.27;;;5.43;;
9200;SDS011;4635;48.686;9.008;2022-10-03T00:59:31;9.27;;;6.00;;
9200;SDS011;4635;48.686;9.008;2022-10-03T01:02:18;9.47;;;5.40;;
9200;SDS011;4635;48.686;9.008;2022-10-03T01:05:06;10.37;;;5.00;;
9200;SDS011;4635;48.686;9.008;2022-10-03T01:07:54;7.23;;;5.10;;
9200;SDS011;4635;48.686;9.008;2022-10-03T01:10:42;8.73;;;6.50;;
9200;SDS011;4635;48.686;9.008;2022-10-03T01:13:26;13.20;;;6.67;;
9200;SDS011;4635;48.686;9.008;2022-10-03T01:16:11;10.93;;;7.60;;
9200;SDS011;4635;48.686;9.008;2022-10-03T01:18:56;21.90;;;13.70;;
9200;SDS011;4635;48.686;9.008;2022-10-03T01:21:40;10.97;;;7.60;;
9200;SDS011;4635;48.686;9.008;2022-10-03T01:24:33;12.17;;;7.43;;
9200;SDS011;4635;48.686;9.008;2022-10-03T01:27:30;9.70;;;7.40;;
9200;SDS011;4635;48.686;9.008;2022-10-03T01:30:42;9.50;;;6.40;;
9200;SDS011;4635;48.686;9.008;2022-10-03T01:33:17;7.00;;;5.20;;
9200;SDS011;4635;48.686;9.008;2022-10-03T01:35:56;7.80;;;5.70;;
9200;SDS011;4635;48.686;9.008;2022-10-03T01:38:33;6.53;;;5.20;;
9200;SDS011;4635;48.686;9.008;2022-10-03T01:41:13;8.70;;;5.47;;
9200;SDS011;4635;48.686;9.008;2022-10-03T01:43:58;8.10;;;5.67;;
9200;SDS011;4635;48.686;9.008;2022-10-03T01:46:44;12.13;;;5.77;;
9200;SDS011;4635;48.686;9.008;2022-10-03T01:49:27;10.87;;;6.40;;
9200;SDS011;4635;48.686;9.008;2022-10-03T01:52:08;8.83;;;6.43;;
9200;SDS011;4635;48.686;9.008;2022-10-03T01:54:51;8.90;;;6.03;;
9200;SDS011;4635;48.686;9.008;2022-10-03T01:57:32;13.43;;;6.00;;
9200;SDS011;4635;48.686;9.008;2022-10-03T02:00:13;6.97;;;5.20;;
9200;SDS011;4635;48.686;9.008;2022-10-03T02:02:51;9.30;;;5.90;;
9200;SDS011;4635;48.686;9.008;2022-10-03T02:05:35;14.40;;;6.17;;
9200;SDS011;4635;48.686;9.008;2022-10-03T02:08:22;14.27;;;6.77;;
9200;SDS011;4635;48.686;9.008;2022-10-03T02:11:01;9.13;;;5.80;;
9200;SDS011;4635;48.686;9.008;2022-10-03T02:13:41;9.40;;;7.30;;
9200;SDS011;4635;48.686;9.008;2022-10-03T02:16:23;6.67;;;4.60;;
9200;SDS011;4635;48.686;9.008;2022-10-03T02:19:09;10.10;;;6.00;;
9200;SDS011;4635;48.686;9.008;2022-10-03T02:21:50;8.67;;;5.20;;
9200;SDS011;4635;48.686;9.008;2022-10-03T02:24:32;6.30;;;4.60;;
9200;SDS011;4635;48.686;9.008;2022-10-03T02:27:21;6.10;;;4.47;;
9200;SDS011;4635;48.686;9.008;2022-10-03T02:30:18;7.10;;;5.00;;
9200;SDS011;4635;48.686;9.008;2022-10-03T02:39:10;13.93;;;7.17;;
9200;SDS011;4635;48.686;9.008;2022-10-03T02:51:42;15.27;;;8.80;;
9200;SDS011;4635;48.686;9.008;2022-10-03T02:57:58;24.03;;;10.33;;
9200;SDS011;4635;48.686;9.008;2022-10-03T03:01:11;25.90;;;11.57;;
9200;SDS011;4635;48.686;9.008;2022-10-03T03:07:29;19.60;;;9.97;;
9200;SDS011;4635;48.686;9.008;2022-10-03T03:16:39;31.17;;;13.00;;
9200;SDS011;4635;48.686;9.008;2022-10-03T03:19:45;24.50;;;13.47;;
9200;SDS011;4635;48.686;9.008;2022-10-03T03:22:35;22.60;;;12.87;;
9200;SDS011;4635;48.686;9.008;2022-10-03T03:25:30;33.80;;;13.60;;
9200;SDS011;4635;48.686;9.008;2022-10-03T03:28:20;42.60;;;14.60;;
9200;SDS011;4635;48.686;9.008;2022-10-03T03:31:06;30.37;;;14.47;;
9200;SDS011;4635;48.686;9.008;2022-10-03T03:33:56;41.40;;;15.37;;
9200;SDS011;4635;48.686;9.008;2022-10-03T03:36:37;57.57;;;18.57;;
9200;SDS011;4635;48.686;9.008;2022-10-03T03:39:15;41.53;;;17.20;;
9200;SDS011;4635;48.686;9.008;2022-10-03T03:42:18;56.87;;;19.43;;
9200;SDS011;4635;48.686;9.008;2022-10-03T03:45:07;34.57;;;16.33;;
9200;SDS011;4635;48.686;9.008;2022-10-03T03:47:56;46.80;;;15.77;;
9200;SDS011;4635;48.686;9.008;2022-10-03T03:50:56;54.03;;;17.20;;
9200;SDS011;4635;48.686;9.008;2022-10-03T03:56:58;38.80;;;14.37;;
9200;SDS011;4635;48.686;9.008;2022-10-03T03:59:47;29.90;;;13.50;;
9200;SDS011;4635;48.686;9.008;2022-10-03T04:02:44;57.90;;;14.90;;
9200;SDS011;4635;48.686;9.008;2022-10-03T04:05:42;43.67;;;14.00;;
9200;SDS011;4635;48.686;9.008;2022-10-03T04:11:53;39.40;;;14.20;;
9200;SDS011;4635;48.686;9.008;2022-10-03T04:17:46;38.97;;;12.47;;
9200;SDS011;4635;48.686;9.008;2022-10-03T04:20:55;31.53;;;12.03;;
9200;SDS011;4635;48.686;9.008;2022-10-03T04:23:49;29.80;;;10.50;;
9200;SDS011;4635;48.686;9.008;2022-10-03T04:30:04;36.03;;;11.23;;
9200;SDS011;4635;48.686;9.008;2022-10-03T04:35:54;35.50;;;12.83;;
9200;SDS011;4635;48.686;9.008;2022-10-03T04:39:00;35.17;;;12.33;;
9200;SDS011;4635;48.686;9.008;2022-10-03T04:41:40;40.47;;;13.90;;
9200;SDS011;4635;48.686;9.008;2022-10-03T04:44:34;44.30;;;15.60;;
9200;SDS011;4635;48.686;9.008;2022-10-03T04:47:21;36.43;;;13.07;;
9200;SDS011;4635;48.686;9.008;2022-10-03T04:50:04;59.20;;;12.40;;
9200;SDS011;4635;48.686;9.008;2022-10-03T04:52:49;35.20;;;10.87;;
9200;SDS011;4635;48.686;9.008;2022-10-03T04:55:29;49.43;;;12.10;;
9200;SDS011;4635;48.686;9.008;2022-10-03T04:58:16;38.27;;;13.27;;
9200;SDS011;4635;48.686;9.008;2022-10-03T05:00:58;36.20;;;12.97;;
9200;SDS011;4635;48.686;9.008;2022-10-03T05:03:40;33.93;;;11.00;;
9200;SDS011;4635;48.686;9.008;2022-10-03T05:06:29;30.87;;;11.30;;
9200;SDS011;4635;48.686;9.008;2022-10-03T05:09:20;35.53;;;12.87;;
9200;SDS011;4635;48.686;9.008;2022-10-03T05:12:05;22.90;;;10.00;;
9200;SDS011;4635;48.686;9.008;2022-10-03T05:14:55;28.80;;;11.77;;
9200;SDS011;4635;48.686;9.008;2022-10-03T05:17:43;34.63;;;12.80;;
9200;SDS011;4635;48.686;9.008;2022-10-03T05:23:28;29.80;;;13.03;;
9200;SDS011;4635;48.686;9.008;2022-10-03T05:26:10;31.47;;;12.80;;
9200;SDS011;4635;48.686;9.008;2022-10-03T05:29:01;38.67;;;13.30;;
9200;SDS011;4635;48.686;9.008;2022-10-03T05:31:43;25.13;;;13.43;;
9200;SDS011;4635;48.686;9.008;2022-10-03T05:34:25;22.70;;;12.20;;
9200;SDS011;4635;48.686;9.008;2022-10-03T05:37:22;24.90;;;12.83;;
9200;SDS011;4635;48.686;9.008;2022-10-03T05:40:14;20.33;;;12.90;;
9200;SDS011;4635;48.686;9.008;2022-10-03T05:42:59;25.37;;;12.97;;
9200;SDS011;4635;48.686;9.008;2022-10-03T05:45:41;19.43;;;10.70;;
9200;SDS011;4635;48.686;9.008;2022-10-03T05:48:29;20.67;;;8.80;;
9200;SDS011;4635;48.686;9.008;2022-10-03T05:51:25;18.40;;;9.30;;
9200;SDS011;4635;48.686;9.008;2022-10-03T05:54:27;18.83;;;11.00;;
9200;SDS011;4635;48.686;9.008;2022-10-03T06:00:38;15.17;;;7.87;;
9200;SDS011;4635;48.686;9.008;2022-10-03T06:06:32;14.70;;;8.57;;
9200;SDS011;4635;48.686;9.008;2022-10-03T06:09:38;16.63;;;8.20;;
9200;SDS011;4635;48.686;9.008;2022-10-03T06:12:32;15.60;;;8.30;;
9200;SDS011;4635;48.686;9.008;2022-10-03T06:15:28;15.67;;;8.90;;
9200;SDS011;4635;48.686;9.008;2022-10-03T06:28:01;14.77;;;8.67;;
9200;SDS011;4635;48.686;9.008;2022-10-03T06:31:02;21.83;;;13.33;;
9200;SDS011;4635;48.686;9.008;2022-10-03T06:37:20;21.60;;;10.47;;
9200;SDS011;4635;48.686;9.008;2022-10-03T06:46:29;18.80;;;10.43;;
9200;SDS011;4635;48.686;9.008;2022-10-03T06:49:27;20.13;;;11.40;;
9200;SDS011;4635;48.686;9.008;2022-10-03T06:58:35;20.73;;;11.77;;
9200;SDS011;4635;48.686;9.008;2022-10-03T07:01:36;18.40;;;10.00;;
9200;SDS011;4635;48.686;9.008;2022-10-03T07:04:41;25.20;;;11.90;;
9200;SDS011;4635;48.686;9.008;2022-10-03T07:10:59;18.40;;;11.33;;
9200;SDS011;4635;48.686;9.008;2022-10-03T07:17:14;24.70;;;11.37;;
9200;SDS011;4635;48.686;9.008;2022-10-03T07:20:28;20.50;;;11.23;;
9200;SDS011;4635;48.686;9.008;2022-10-03T07:23:40;23.90;;;13.00;;
9200;SDS011;4635;48.686;9.008;2022-10-03T07:26:42;27.63;;;13.70;;
9200;SDS011;4635;48.686;9.008;2022-10-03T07:29:32;24.90;;;13.90;;
9200;SDS011;4635;48.686;9.008;2022-10-03T07:32:26;30.63;;;13.60;;
9200;SDS011;4635;48.686;9.008;2022-10-03T07:35:26;18.70;;;12.07;;
9200;SDS011;4635;48.686;9.008;2022-10-03T07:41:41;25.03;;;13.23;;
9200;SDS011;4635;48.686;9.008;2022-10-03T07:51:25;29.50;;;14.07;;
9200;SDS011;4635;48.686;9.008;2022-10-03T08:00:15;27.10;;;14.07;;
9200;SDS011;4635;48.686;9.008;2022-10-03T08:06:12;20.10;;;13.07;;
9200;SDS011;4635;48.686;9.008;2022-10-03T08:08:58;17.40;;;12.20;;
9200;SDS011;4635;48.686;9.008;2022-10-03T08:15:01;27.50;;;15.03;;
9200;SDS011;4635;48.686;9.008;2022-10-03T08:17:59;34.33;;;16.50;;
9200;SDS011;4635;48.686;9.008;2022-10-03T08:20:55;28.40;;;15.50;;
9200;SDS011;4635;48.686;9.008;2022-10-03T08:27:06;25.20;;;16.90;;
9200;SDS011;4635;48.686;9.008;2022-10-03T08:33:10;29.50;;;16.83;;
9200;SDS011;4635;48.686;9.008;2022-10-03T08:36:15;34.37;;;17.30;;
9200;SDS011;4635;48.686;9.008;2022-10-03T08:39:27;30.23;;;15.90;;
9200;SDS011;4635;48.686;9.008;2022-10-03T08:42:25;26.77;;;13.83;;
9200;SDS011;4635;48.686;9.008;2022-10-03T08:48:44;23.20;;;14.87;;
9200;SDS011;4635;48.686;9.008;2022-10-03T08:51:51;32.83;;;15.07;;
9200;SDS011;4635;48.686;9.008;2022-10-03T08:54:48;24.10;;;15.93;;
9200;SDS011;4635;48.686;9.008;2022-10-03T09:04:09;17.87;;;13.40;;
9200;SDS011;4635;48.686;9.008;2022-10-03T09:07:24;24.97;;;13.47;;
9200;SDS011;4635;48.686;9.008;2022-10-03T09:10:33;34.73;;;14.87;;
9200;SDS011;4635;48.686;9.008;2022-10-03T09:13:36;23.40;;;13.63;;
9200;SDS011;4635;48.686;9.008;2022-10-03T09:16:42;26.00;;;13.57;;
9200;SDS011;4635;48.686;9.008;2022-10-03T09:19:33;26.20;;;14.37;;
9200;SDS011;4635;48.686;9.008;2022-10-03T09:22:41;26.40;;;13.97;;
9200;SDS011;4635;48.686;9.008;2022-10-03T09:25:43;30.40;;;14.80;;
9200;SDS011;4635;48.686;9.008;2022-10-03T09:31:57;26.63;;;12.80;;
9200;SDS011;4635;48.686;9.008;2022-10-03T09:35:27;24.83;;;13.13;;
9200;SDS011;4635;48.686;9.008;2022-10-03T09:48:17;30.50;;;12.93;;
9200;SDS011;4635;48.686;9.008;2022-10-03T09:54:26;18.03;;;10.70;;
9200;SDS011;4635;48.686;9.008;2022-10-03T10:07:16;18.13;;;8.80;;
9200;SDS011;4635;48.686;9.008;2022-10-03T10:10:14;12.20;;;7.20;;
9200;SDS011;4635;48.686;9.008;2022-10-03T10:13:15;21.07;;;7.90;;
9200;SDS011;4635;48.686;9.008;2022-10-03T10:16:05;16.73;;;7.00;;
9200;SDS011;4635;48.686;9.008;2022-10-03T10:22:01;13.30;;;5.37;;
9200;SDS011;4635;48.686;9.008;2022-10-03T10:28:03;10.23;;;5.83;;
9200;SDS011;4635;48.686;9.008;2022-10-03T10:31:09;13.30;;;6.63;;
9200;SDS011;4635;48.686;9.008;2022-10-03T10:47:09;7.30;;;5.50;;
9200;SDS011;4635;48.686;9.008;2022-10-03T10:56:48;10.90;;;6.70;;
9200;SDS011;4635;48.686;9.008;2022-10-03T10:59:56;12.07;;;4.63;;
9200;SDS011;4635;48.686;9.008;2022-10-03T11:06:25;7.83;;;4.47;;
9200;SDS011;4635;48.686;9.008;2022-10-03T11:09:28;8.10;;;4.17;;
9200;SDS011;4635;48.686;9.008;2022-10-03T11:25:21;14.57;;;6.23;;
9200;SDS011;4635;48.686;9.008;2022-10-03T11:35:28;8.60;;;6.43;;
9200;SDS011;4635;48.686;9.008;2022-10-03T11:38:21;13.83;;;7.70;;
9200;SDS011;4635;48.686;9.008;2022-10-03T11:41:04;10.07;;;7.40;;
9200;SDS011;4635;48.686;9.008;2022-10-03T11:43:55;14.77;;;8.03;;
9200;SDS011;4635;48.686;9.008;2022-10-03T11:46:51;12.77;;;6.50;;
9200;SDS011;4635;48.686;9.008;2022-10-03T11:53:02;10.10;;;5.90;;
9200;SDS011;4635;48.686;9.008;2022-10-03T11:55:55;14.23;;;6.33;;
9200;SDS011;4635;48.686;9.008;2022-10-03T11:58:55;13.83;;;7.33;;
9200;SDS011;4635;48.686;9.008;2022-10-03T12:01:45;14.57;;;6.63;;
9200;SDS011;4635;48.686;9.008;2022-10-03T12:04:51;8.57;;;7.20;;
9200;SDS011;4635;48.686;9.008;2022-10-03T12:07:35;11.07;;;7.13;;
9200;SDS011;4635;48.686;9.008;2022-10-03T12:10:42;18.97;;;7.60;;
9200;SDS011;4635;48.686;9.008;2022-10-03T12:13:25;18.13;;;7.53;;
9200;SDS011;4635;48.686;9.008;2022-10-03T12:16:14;17.87;;;7.80;;
9200;SDS011;4635;48.686;9.008;2022-10-03T12:19:00;13.20;;;7.30;;
9200;SDS011;4635;48.686;9.008;2022-10-03T12:21:39;17.43;;;8.20;;
9200;SDS011;4635;48.686;9.008;2022-10-03T12:24:27;14.73;;;6.57;;
9200;SDS011;4635;48.686;9.008;2022-10-03T12:27:09;11.57;;;6.20;;
9200;SDS011;4635;48.686;9.008;2022-10-03T12:30:29;16.83;;;10.07;;
9200;SDS011;4635;48.686;9.008;2022-10-03T12:33:23;15.43;;;6.67;;
9200;SDS011;4635;48.686;9.008;2022-10-03T12:36:09;15.17;;;6.03;;
9200;SDS011;4635;48.686;9.008;2022-10-03T12:38:51;14.90;;;6.30;;
9200;SDS011;4635;48.686;9.008;2022-10-03T12:41:41;24.73;;;6.27;;
9200;SDS011;4635;48.686;9.008;2022-10-03T12:44:41;13.63;;;6.60;;
9200;SDS011;4635;48.686;9.008;2022-10-03T12:47:44;10.40;;;5.40;;
9200;SDS011;4635;48.686;9.008;2022-10-03T12:50:37;13.67;;;5.37;;
9200;SDS011;4635;48.686;9.008;2022-10-03T12:53:33;10.30;;;6.10;;
9200;SDS011;4635;48.686;9.008;2022-10-03T12:56:20;11.33;;;5.40;;
9200;SDS011;4635;48.686;9.008;2022-10-03T12:59:18;7.70;;;5.27;;
9200;SDS011;4635;48.686;9.008;2022-10-03T13:08:41;11.93;;;6.07;;
9200;SDS011;4635;48.686;9.008;2022-10-03T13:11:54;19.03;;;9.23;;
9200;SDS011;4635;48.686;9.008;2022-10-03T13:20:56;12.90;;;5.30;;
9200;SDS011;4635;48.686;9.008;2022-10-03T13:23:43;9.90;;;4.40;;
9200;SDS011;4635;48.686;9.008;2022-10-03T13:26:49;16.30;;;5.83;;
9200;SDS011;4635;48.686;9.008;2022-10-03T13:29:46;10.37;;;5.07;;
9200;SDS011;4635;48.686;9.008;2022-10-03T13:32:34;9.07;;;2.90;;
9200;SDS011;4635;48.686;9.008;2022-10-03T13:35:39;4.40;;;3.07;;
9200;SDS011;4635;48.686;9.008;2022-10-03T13:41:55;7.13;;;2.77;;
9200;SDS011;4635;48.686;9.008;2022-10-03T13:44:39;8.57;;;3.40;;
9200;SDS011;4635;48.686;9.008;2022-10-03T13:47:27;7.93;;;3.90;;
9200;SDS011;4635;48.686;9.008;2022-10-03T13:50:20;13.00;;;3.10;;
9200;SDS011;4635;48.686;9.008;2022-10-03T13:52:57;5.17;;;3.70;;
9200;SDS011;4635;48.686;9.008;2022-10-03T13:55:46;7.00;;;3.53;;
9200;SDS011;4635;48.686;9.008;2022-10-03T13:58:34;8.20;;;3.60;;
9200;SDS011;4635;48.686;9.008;2022-10-03T14:01:25;7.37;;;3.43;;
9200;SDS011;4635;48.686;9.008;2022-10-03T14:04:35;9.33;;;3.77;;
9200;SDS011;4635;48.686;9.008;2022-10-03T14:07:23;7.10;;;3.23;;
9200;SDS011;4635;48.686;9.008;2022-10-03T14:10:16;8.30;;;4.00;;
9200;SDS011;4635;48.686;9.008;2022-10-03T14:13:12;4.20;;;3.57;;
9200;SDS011;4635;48.686;9.008;2022-10-03T14:15:55;10.90;;;4.07;;
9200;SDS011;4635;48.686;9.008;2022-10-03T14:18:49;8.87;;;4.10;;
9200;SDS011;4635;48.686;9.008;2022-10-03T14:21:54;7.43;;;4.47;;
9200;SDS011;4635;48.686;9.008;2022-10-03T14:24:48;5.00;;;3.93;;
9200;SDS011;4635;48.686;9.008;2022-10-03T14:28:13;10.27;;;5.10;;
9200;SDS011;4635;48.686;9.008;2022-10-03T14:30:56;11.60;;;4.60;;
9200;SDS011;4635;48.686;9.008;2022-10-03T14:33:42;8.83;;;4.80;;
9200;SDS011;4635;48.686;9.008;2022-10-03T14:36:37;15.57;;;4.97;;
9200;SDS011;4635;48.686;9.008;2022-10-03T14:39:33;6.23;;;3.40;;
9200;SDS011;4635;48.686;9.008;2022-10-03T14:42:32;5.33;;;3.20;;
9200;SDS011;4635;48.686;9.008;2022-10-03T14:45:53;12.50;;;4.23;;
9200;SDS011;4635;48.686;9.008;2022-10-03T14:48:33;11.43;;;4.90;;
9200;SDS011;4635;48.686;9.008;2022-10-03T14:51:25;16.70;;;3.80;;
9200;SDS011;4635;48.686;9.008;2022-10-03T14:57:25;16.53;;;3.87;;
9200;SDS011;4635;48.686;9.008;2022-10-03T15:00:35;10.43;;;3.97;;
9200;SDS011;4635;48.686;9.008;2022-10-03T15:03:27;8.80;;;3.90;;
9200;SDS011;4635;48.686;9.008;2022-10-03T15:06:20;7.17;;;3.43;;
9200;SDS011;4635;48.686;9.008;2022-10-03T15:09:08;8.77;;;3.50;;
9200;SDS011;4635;48.686;9.008;2022-10-03T15:11:48;6.77;;;4.20;;
9200;SDS011;4635;48.686;9.008;2022-10-03T15:14:46;12.87;;;4.10;;
9200;SDS011;4635;48.686;9.008;2022-10-03T15:17:33;13.33;;;4.63;;
9200;SDS011;4635;48.686;9.008;2022-10-03T15:23:37;8.37;;;3.80;;
9200;SDS011;4635;48.686;9.008;2022-10-03T15:26:31;8.07;;;4.00;;
9200;SDS011;4635;48.686;9.008;2022-10-03T15:29:27;14.23;;;4.90;;
9200;SDS011;4635;48.686;9.008;2022-10-03T15:36:18;19.30;;;7.60;;
9200;SDS011;4635;48.686;9.008;2022-10-03T15:38:59;9.40;;;5.43;;
9200;SDS011;4635;48.686;9.008;2022-10-03T15:41:52;13.57;;;4.33;;
9200;SDS011;4635;48.686;9.008;2022-10-03T15:44:38;11.43;;;3.50;;
9200;SDS011;4635;48.686;9.008;2022-10-03T15:47:32;10.00;;;3.30;;
9200;SDS011;4635;48.686;9.008;2022-10-03T15:50:15;7.50;;;3.70;;
9200;SDS011;4635;48.686;9.008;2022-10-03T15:53:05;12.00;;;4.03;;
9200;SDS011;4635;48.686;9.008;2022-10-03T15:55:47;19.13;;;10.90;;
9200;SDS011;4635;48.686;9.008;2022-10-03T15:58:53;7.50;;;4.07;;
9200;SDS011;4635;48.686;9.008;2022-10-03T16:01:43;8.80;;;4.27;;
9200;SDS011;4635;48.686;9.008;2022-10-03T16:04:37;9.40;;;4.20;;
9200;SDS011;4635;48.686;9.008;2022-10-03T16:07:27;10.60;;;3.80;;
9200;SDS011;4635;48.686;9.008;2022-10-03T16:10:41;12.27;;;4.13;;
9200;SDS011;4635;48.686;9.008;2022-10-03T16:13:33;10.70;;;4.47;;
9200;SDS011;4635;48.686;9.008;2022-10-03T16:16:12;52.13;;;33.47;;
9200;SDS011;4635;48.686;9.008;2022-10-03T16:19:01;14.53;;;4.10;;
9200;SDS011;4635;48.686;9.008;2022-10-03T16:22:01;8.50;;;4.67;;
9200;SDS011;4635;48.686;9.008;2022-10-03T16:25:07;8.33;;;3.60;;
9200;SDS011;4635;48.686;9.008;2022-10-03T16:27:57;6.70;;;3.87;;
9200;SDS011;4635;48.686;9.008;2022-10-03T16:30:46;8.63;;;3.20;;
9200;SDS011;4635;48.686;9.008;2022-10-03T16:33:25;9.13;;;3.87;;
9200;SDS011;4635;48.686;9.008;2022-10-03T16:36:01;11.47;;;4.70;;
9200;SDS011;4635;48.686;9.008;2022-10-03T16:38:35;11.17;;;4.53;;
9200;SDS011;4635;48.686;9.008;2022-10-03T16:41:16;6.30;;;4.17;;
9200;SDS011;4635;48.686;9.008;2022-10-03T16:43:56;14.30;;;5.47;;
9200;SDS011;4635;48.686;9.008;2022-10-03T16:46:31;10.33;;;4.97;;
9200;SDS011;4635;48.686;9.008;2022-10-03T16:49:10;12.67;;;5.80;;
9200;SDS011;4635;48.686;9.008;2022-10-03T16:52:16;8.00;;;3.93;;
9200;SDS011;4635;48.686;9.008;2022-10-03T16:54:58;14.47;;;5.07;;
9200;SDS011;4635;48.686;9.008;2022-10-03T16:57:40;8.03;;;4.17;;
9200;SDS011;4635;48.686;9.008;2022-10-03T17:00:23;18.73;;;4.87;;
9200;SDS011;4635;48.686;9.008;2022-10-03T17:03:02;10.03;;;4.87;;
9200;SDS011;4635;48.686;9.008;2022-10-03T17:06:01;11.13;;;4.67;;
9200;SDS011;4635;48.686;9.008;2022-10-03T17:08:44;11.77;;;4.60;;
9200;SDS011;4635;48.686;9.008;2022-10-03T17:11:21;16.40;;;5.03;;
9200;SDS011;4635;48.686;9.008;2022-10-03T17:13:55;15.23;;;6.00;;
9200;SDS011;4635;48.686;9.008;2022-10-03T17:16:40;13.23;;;6.20;;
9200;SDS011;4635;48.686;9.008;2022-10-03T17:19:26;10.17;;;6.37;;
9200;SDS011;4635;48.686;9.008;2022-10-03T17:22:06;10.20;;;7.40;;
9200;SDS011;4635;48.686;9.008;2022-10-03T17:24:50;15.90;;;6.10;;
9200;SDS011;4635;48.686;9.008;2022-10-03T17:27:35;10.80;;;6.43;;
9200;SDS011;4635;48.686;9.008;2022-10-03T17:30:17;27.03;;;7.80;;
9200;SDS011;4635;48.686;9.008;2022-10-03T17:39:13;14.00;;;7.03;;
9200;SDS011;4635;48.686;9.008;2022-10-03T17:42:11;23.57;;;7.50;;
9200;SDS011;4635;48.686;9.008;2022-10-03T17:45:04;12.57;;;6.10;;
9200;SDS011;4635;48.686;9.008;2022-10-03T17:48:02;12.50;;;7.00;;
9200;SDS011;4635;48.686;9.008;2022-10-03T17:50:48;16.30;;;7.90;;
9200;SDS011;4635;48.686;9.008;2022-10-03T17:53:27;15.40;;;6.97;;
9200;SDS011;4635;48.686;9.008;2022-10-03T17:56:03;23.63;;;14.30;;
9200;SDS011;4635;48.686;9.008;2022-10-03T17:58:40;10.60;;;7.40;;
9200;SDS011;4635;48.686;9.008;2022-10-03T18:01:19;11.77;;;8.10;;
9200;SDS011;4635;48.686;9.008;2022-10-03T18:04:05;26.33;;;7.93;;
9200;SDS011;4635;48.686;9.008;2022-10-03T18:06:55;25.67;;;8.77;;
9200;SDS011;4635;48.686;9.008;2022-10-03T18:09:32;16.93;;;8.80;;
9200;SDS011;4635;48.686;9.008;2022-10-03T18:12:20;20.23;;;8.00;;
9200;SDS011;4635;48.686;9.008;2022-10-03T18:18:40;14.90;;;9.50;;
9200;SDS011;4635;48.686;9.008;2022-10-03T18:21:26;14.67;;;7.97;;
9200;SDS011;4635;48.686;9.008;2022-10-03T18:24:18;13.67;;;8.37;;
9200;SDS011;4635;48.686;9.008;2022-10-03T18:30:43;16.20;;;8.63;;
9200;SDS011;4635;48.686;9.008;2022-10-03T18:33:30;22.00;;;10.50;;
9200;SDS011;4635;48.686;9.008;2022-10-03T18:36:15;16.60;;;10.07;;
9200;SDS011;4635;48.686;9.008;2022-10-03T18:38:53;14.10;;;10.60;;
9200;SDS011;4635;48.686;9.008;2022-10-03T18:41:31;15.17;;;10.60;;
9200;SDS011;4635;48.686;9.008;2022-10-03T18:44:13;17.83;;;9.63;;
9200;SDS011;4635;48.686;9.008;2022-10-03T18:46:49;23.03;;;10.67;;
9200;SDS011;4635;48.686;9.008;2022-10-03T18:49:28;19.70;;;10.20;;
9200;SDS011;4635;48.686;9.008;2022-10-03T18:52:05;18.83;;;10.20;;
9200;SDS011;4635;48.686;9.008;2022-10-03T18:54:51;18.90;;;9.40;;
9200;SDS011;4635;48.686;9.008;2022-10-03T18:57:33;17.67;;;10.97;;
9200;SDS011;4635;48.686;9.008;2022-10-03T19:00:14;18.10;;;9.70;;
9200;SDS011;4635;48.686;9.008;2022-10-03T19:02:50;19.63;;;9.60;;
9200;SDS011;4635;48.686;9.008;2022-10-03T19:05:25;15.87;;;9.33;;
9200;SDS011;4635;48.686;9.008;2022-10-03T19:08:07;12.00;;;10.17;;
9200;SDS011;4635;48.686;9.008;2022-10-03T19:10:53;17.87;;;9.20;;
9200;SDS011;4635;48.686;9.008;2022-10-03T19:13:36;19.20;;;10.43;;
9200;SDS011;4635;48.686;9.008;2022-10-03T19:16:19;20.13;;;10.50;;
9200;SDS011;4635;48.686;9.008;2022-10-03T19:19:15;13.83;;;9.30;;
9200;SDS011;4635;48.686;9.008;2022-10-03T19:21:55;20.17;;;12.10;;
9200;SDS011;4635;48.686;9.008;2022-10-03T19:24:36;19.77;;;13.57;;
9200;SDS011;4635;48.686;9.008;2022-10-03T19:27:11;22.13;;;11.37;;
9200;SDS011;4635;48.686;9.008;2022-10-03T19:30:04;18.63;;;11.37;;
9200;SDS011;4635;48.686;9.008;2022-10-03T19:32:48;21.97;;;12.80;;
9200;SDS011;4635;48.686;9.008;2022-10-03T19:35:24;22.63;;;11.07;;
9200;SDS011;4635;48.686;9.008;2022-10-03T19:38:01;26.67;;;12.93;;
9200;SDS011;4635;48.686;9.008;2022-10-03T19:40:50;19.43;;;11.30;;
9200;SDS011;4635;48.686;9.008;2022-10-03T19:43:37;25.93;;;12.70;;
9200;SDS011;4635;48.686;9.008;2022-10-03T19:46:21;16.53;;;11.03;;
9200;SDS011;4635;48.686;9.008;2022-10-03T19:52:15;23.17;;;10.93;;
9200;SDS011;4635;48.686;9.008;2022-10-03T19:54:52;22.47;;;11.13;;
9200;SDS011;4635;48.686;9.008;2022-10-03T19:57:38;38.27;;;11.83;;
9200;SDS011;4635;48.686;9.008;2022-10-03T20:00:26;24.20;;;11.77;;
9200;SDS011;4635;48.686;9.008;2022-10-03T20:03:10;24.67;;;12.40;;
9200;SDS011;4635;48.686;9.008;2022-10-03T20:05:52;25.03;;;12.10;;
9200;SDS011;4635;48.686;9.008;2022-10-03T20:08:40;20.13;;;13.07;;
9200;SDS011;4635;48.686;9.008;2022-10-03T20:11:21;19.30;;;12.73;;
9200;SDS011;4635;48.686;9.008;2022-10-03T20:14:12;24.07;;;13.87;;
9200;SDS011;4635;48.686;9.008;2022-10-03T20:16:53;16.20;;;12.10;;
9200;SDS011;4635;48.686;9.008;2022-10-03T20:19:36;40.73;;;13.30;;
9200;SDS011;4635;48.686;9.008;2022-10-03T20:22:20;12.47;;;10.60;;
9200;SDS011;4635;48.686;9.008;2022-10-03T20:24:56;19.93;;;12.17;;
9200;SDS011;4635;48.686;9.008;2022-10-03T20:27:33;19.70;;;11.90;;
9200;SDS011;4635;48.686;9.008;2022-10-03T20:30:19;25.53;;;14.30;;
9200;SDS011;4635;48.686;9.008;2022-10-03T20:32:54;18.83;;;11.90;;
9200;SDS011;4635;48.686;9.008;2022-10-03T20:35:34;17.17;;;11.53;;
9200;SDS011;4635;48.686;9.008;2022-10-03T20:38:19;12.07;;;10.77;;
9200;SDS011;4635;48.686;9.008;2022-10-03T20:40:57;15.83;;;9.43;;
9200;SDS011;4635;48.686;9.008;2022-10-03T20:43:38;20.30;;;9.60;;
9200;SDS011;4635;48.686;9.008;2022-10-03T20:46:15;17.13;;;9.67;;
9200;SDS011;4635;48.686;9.008;2022-10-03T20:49:02;24.23;;;10.60;;
9200;SDS011;4635;48.686;9.008;2022-10-03T20:51:53;19.63;;;11.27;;
9200;SDS011;4635;48.686;9.008;2022-10-03T20:54:33;24.13;;;11.27;;
9200;SDS011;4635;48.686;9.008;2022-10-03T20:57:23;20.37;;;10.43;;
9200;SDS011;4635;48.686;9.008;2022-10-03T21:00:03;16.80;;;10.67;;
9200;SDS011;4635;48.686;9.008;2022-10-03T21:02:42;24.40;;;10.20;;
9200;SDS011;4635;48.686;9.008;2022-10-03T21:05:20;15.73;;;9.83;;
9200;SDS011;4635;48.686;9.008;2022-10-03T21:07:58;20.90;;;10.20;;
9200;SDS011;4635;48.686;9.008;2022-10-03T21:10:34;20.10;;;8.90;;
9200;SDS011;4635;48.686;9.008;2022-10-03T21:13:11;21.53;;;10.43;;
9200;SDS011;4635;48.686;9.008;2022-10-03T21:15:50;17.33;;;10.70;;
9200;SDS011;4635;48.686;9.008;2022-10-03T21:18:27;18.03;;;10.20;;
9200;SDS011;4635;48.686;9.008;2022-10-03T21:21:11;15.73;;;9.20;;
9200;SDS011;4635;48.686;9.008;2022-10-03T21:23:54;24.07;;;11.20;;
9200;SDS011;4635;48.686;9.008;2022-10-03T21:26:32;22.60;;;10.33;;
9200;SDS011;4635;48.686;9.008;2022-10-03T21:29:15;13.13;;;9.10;;
9200;SDS011;4635;48.686;9.008;2022-10-03T21:32:03;15.83;;;9.13;;